sensor_id;sensor_type;location;lat;lon;timestamp;temperature;humidity
5711;DHT22;61291;52.524;13.422;2023-11-19T00:00:06;6.00;99.90
5711;DHT22;61291;52.524;13.422;2023-11-19T00:02:36;6.00;99.90
5711;DHT22;61291;52.524;13.422;2023-11-19T00:05:02;6.00;99.90
5711;DHT22;61291;52.524;13.422;2023-11-19T00:07:27;6.00;99.90
5711;DHT22;61291;52.524;13.422;2023-11-19T00:09:53;6.00;99.90
5711;DHT22;61291;52.524;13.422;2023-11-19T00:12:20;6.00;99.90
5711;DHT22;61291;52.524;13.422;2023-11-19T00:14:46;6.00;99.90
5711;DHT22;61291;52.524;13.422;2023-11-19T00:17:11;5.90;99.90
5711;DHT22;61291;52.524;13.422;2023-11-19T00:19:37;6.00;99.90
5711;DHT22;61291;52.524;13.422;2023-11-19T00:22:02;6.00;99.90
5711;DHT22;61291;52.524;13.422;2023-11-19T00:24:29;6.00;99.90
5711;DHT22;61291;52.524;13.422;2023-11-19T00:26:56;6.00;99.90
5711;DHT22;61291;52.524;13.422;2023-11-19T00:29:21;6.00;99.90
5711;DHT22;61291;52.524;13.422;2023-11-19T00:31:47;6.00;99.90
5711;DHT22;61291;52.524;13.422;2023-11-19T00:34:13;6.10;99.90
5711;DHT22;61291;52.524;13.422;2023-11-19T00:36:39;6.00;99.90
5711;DHT22;61291;52.524;13.422;2023-11-19T00:39:04;6.10;99.90
5711;DHT22;61291;52.524;13.422;2023-11-19T00:41:31;6.10;99.90
5711;DHT22;61291;52.524;13.422;2023-11-19T00:43:56;6.10;99.90
5711;DHT22;61291;52.524;13.422;2023-11-19T00:46:21;6.10;99.90
5711;DHT22;61291;52.524;13.422;2023-11-19T00:48:47;6.10;99.90
5711;DHT22;61291;52.524;13.422;2023-11-19T00:51:12;6.20;99.90
5711;DHT22;61291;52.524;13.422;2023-11-19T00:53:38;6.20;99.90
5711;DHT22;61291;52.524;13.422;2023-11-19T00:56:04;6.20;99.90
5711;DHT22;61291;52.524;13.422;2023-11-19T00:58:29;6.10;99.90
5711;DHT22;61291;52.524;13.422;2023-11-19T01:00:55;6.20;99.90
5711;DHT22;61291;52.524;13.422;2023-11-19T01:03:22;6.20;99.90
5711;DHT22;61291;52.524;13.422;2023-11-19T01:05:48;6.20;99.90
5711;DHT22;61291;52.524;13.422;2023-11-19T01:08:13;6.20;99.90
5711;DHT22;61291;52.524;13.422;2023-11-19T01:10:41;6.20;99.90
5711;DHT22;61291;52.524;13.422;2023-11-19T01:13:06;6.20;99.90
5711;DHT22;61291;52.524;13.422;2023-11-19T01:15:32;6.20;99.90
5711;DHT22;61291;52.524;13.422;2023-11-19T01:17:58;6.20;99.90
5711;DHT22;61291;52.524;13.422;2023-11-19T01:20:23;6.20;99.90
5711;DHT22;61291;52.524;13.422;2023-11-19T01:22:49;6.30;99.90
5711;DHT22;61291;52.524;13.422;2023-11-19T01:25:14;6.20;99.90
5711;DHT22;61291;52.524;13.422;2023-11-19T01:27:40;6.30;99.90
5711;DHT22;61291;52.524;13.422;2023-11-19T01:30:06;6.30;99.90
5711;DHT22;61291;52.524;13.422;2023-11-19T01:32:34;6.30;99.90
5711;DHT22;61291;52.524;13.422;2023-11-19T01:35:00;6.40;99.90
5711;DHT22;61291;52.524;13.422;2023-11-19T01:37:26;6.30;99.90
5711;DHT22;61291;52.524;13.422;2023-11-19T01:39:51;6.40;99.90
5711;DHT22;61291;52.524;13.422;2023-11-19T01:42:17;6.40;99.90
5711;DHT22;61291;52.524;13.422;2023-11-19T01:44:42;6.50;99.90
5711;DHT22;61291;52.524;13.422;2023-11-19T01:47:08;6.50;99.90
5711;DHT22;61291;52.524;13.422;2023-11-19T01:49:34;6.50;99.90
5711;DHT22;61291;52.524;13.422;2023-11-19T01:52:00;6.50;99.90
5711;DHT22;61291;52.524;13.422;2023-11-19T01:54:26;6.50;99.90
5711;DHT22;61291;52.524;13.422;2023-11-19T01:56:54;6.50;99.90
5711;DHT22;61291;52.524;13.422;2023-11-19T01:59:22;6.60;99.90
5711;DHT22;61291;52.524;13.422;2023-11-19T02:01:52;6.50;99.90
5711;DHT22;61291;52.524;13.422;2023-11-19T02:04:18;6.60;99.90
5711;DHT22;61291;52.524;13.422;2023-11-19T02:06:45;6.60;99.90
5711;DHT22;61291;52.524;13.422;2023-11-19T02:09:12;6.60;99.90
5711;DHT22;61291;52.524;13.422;2023-11-19T02:11:40;6.60;99.90
5711;DHT22;61291;52.524;13.422;2023-11-19T02:14:05;6.60;99.90
5711;DHT22;61291;52.524;13.422;2023-11-19T02:16:32;6.50;99.90
5711;DHT22;61291;52.524;13.422;2023-11-19T02:18:57;6.50;99.90
5711;DHT22;61291;52.524;13.422;2023-11-19T02:21:23;6.40;99.90
5711;DHT22;61291;52.524;13.422;2023-11-19T02:23:48;6.40;99.90
5711;DHT22;61291;52.524;13.422;2023-11-19T02:26:29;6.30;99.90
5711;DHT22;61291;52.524;13.422;2023-11-19T02:28:56;6.40;99.90
5711;DHT22;61291;52.524;13.422;2023-11-19T02:31:22;6.40;99.90
5711;DHT22;61291;52.524;13.422;2023-11-19T02:33:48;6.30;99.90
5711;DHT22;61291;52.524;13.422;2023-11-19T02:36:15;6.40;99.90
5711;DHT22;61291;52.524;13.422;2023-11-19T02:38:42;6.40;99.90
5711;DHT22;61291;52.524;13.422;2023-11-19T02:41:07;6.50;99.90
5711;DHT22;61291;52.524;13.422;2023-11-19T02:43:34;6.40;99.90
5711;DHT22;61291;52.524;13.422;2023-11-19T02:46:03;6.50;99.90
5711;DHT22;61291;52.524;13.422;2023-11-19T02:48:33;6.50;99.90
5711;DHT22;61291;52.524;13.422;2023-11-19T02:51:01;6.50;99.90
5711;DHT22;61291;52.524;13.422;2023-11-19T02:53:26;6.50;99.90
5711;DHT22;61291;52.524;13.422;2023-11-19T02:55:54;6.50;99.90
5711;DHT22;61291;52.524;13.422;2023-11-19T02:58:26;6.60;99.90
5711;DHT22;61291;52.524;13.422;2023-11-19T03:00:53;6.50;99.90
5711;DHT22;61291;52.524;13.422;2023-11-19T03:03:26;6.60;99.90
5711;DHT22;61291;52.524;13.422;2023-11-19T03:06:04;6.50;99.90
5711;DHT22;61291;52.524;13.422;2023-11-19T03:08:30;6.60;99.90
5711;DHT22;61291;52.524;13.422;2023-11-19T03:10:55;6.60;99.90
5711;DHT22;61291;52.524;13.422;2023-11-19T03:13:21;6.70;99.90
5711;DHT22;61291;52.524;13.422;2023-11-19T03:15:47;6.70;99.90
5711;DHT22;61291;52.524;13.422;2023-11-19T03:18:12;6.70;99.90
5711;DHT22;61291;52.524;13.422;2023-11-19T03:20:38;6.60;99.90
5711;DHT22;61291;52.524;13.422;2023-11-19T03:23:03;6.70;99.90
5711;DHT22;61291;52.524;13.422;2023-11-19T03:25:29;6.70;99.90
5711;DHT22;61291;52.524;13.422;2023-11-19T03:28:02;6.80;99.90
5711;DHT22;61291;52.524;13.422;2023-11-19T03:30:28;6.80;99.90
5711;DHT22;61291;52.524;13.422;2023-11-19T03:32:55;6.70;99.90
5711;DHT22;61291;52.524;13.422;2023-11-19T03:35:21;6.70;99.90
5711;DHT22;61291;52.524;13.422;2023-11-19T03:37:47;6.80;99.90
5711;DHT22;61291;52.524;13.422;2023-11-19T03:40:12;6.70;99.90
5711;DHT22;61291;52.524;13.422;2023-11-19T03:42:38;6.70;99.90
5711;DHT22;61291;52.524;13.422;2023-11-19T03:45:08;6.60;99.90
5711;DHT22;61291;52.524;13.422;2023-11-19T03:47:34;6.50;99.90
5711;DHT22;61291;52.524;13.422;2023-11-19T03:50:00;6.40;99.90
5711;DHT22;61291;52.524;13.422;2023-11-19T03:52:26;6.20;99.90
5711;DHT22;61291;52.524;13.422;2023-11-19T03:54:52;6.20;99.90
5711;DHT22;61291;52.524;13.422;2023-11-19T03:57:19;6.20;99.90
5711;DHT22;61291;52.524;13.422;2023-11-19T03:59:45;6.20;99.90
5711;DHT22;61291;52.524;13.422;2023-11-19T04:02:11;6.10;99.90
5711;DHT22;61291;52.524;13.422;2023-11-19T04:04:37;6.10;99.90
5711;DHT22;61291;52.524;13.422;2023-11-19T04:07:05;6.10;99.90
5711;DHT22;61291;52.524;13.422;2023-11-19T04:09:31;6.00;99.90
5711;DHT22;61291;52.524;13.422;2023-11-19T04:12:00;6.00;99.90
5711;DHT22;61291;52.524;13.422;2023-11-19T04:14:26;6.00;99.90
5711;DHT22;61291;52.524;13.422;2023-11-19T04:16:52;6.00;99.90
5711;DHT22;61291;52.524;13.422;2023-11-19T04:19:18;6.00;99.90
5711;DHT22;61291;52.524;13.422;2023-11-19T04:21:44;6.00;99.90
5711;DHT22;61291;52.524;13.422;2023-11-19T04:24:10;6.00;99.90
5711;DHT22;61291;52.524;13.422;2023-11-19T04:26:45;6.00;99.90
5711;DHT22;61291;52.524;13.422;2023-11-19T04:29:15;6.00;99.90
5711;DHT22;61291;52.524;13.422;2023-11-19T04:31:42;5.90;99.90
5711;DHT22;61291;52.524;13.422;2023-11-19T04:34:08;6.00;99.90
5711;DHT22;61291;52.524;13.422;2023-11-19T04:36:33;6.00;99.90
5711;DHT22;61291;52.524;13.422;2023-11-19T04:39:00;6.00;99.90
5711;DHT22;61291;52.524;13.422;2023-11-19T04:41:26;6.00;99.90
5711;DHT22;61291;52.524;13.422;2023-11-19T04:43:53;6.10;99.90
5711;DHT22;61291;52.524;13.422;2023-11-19T04:46:19;6.10;99.90
5711;DHT22;61291;52.524;13.422;2023-11-19T04:48:44;6.10;99.90
5711;DHT22;61291;52.524;13.422;2023-11-19T04:51:10;6.10;99.90
5711;DHT22;61291;52.524;13.422;2023-11-19T04:53:35;6.10;99.90
5711;DHT22;61291;52.524;13.422;2023-11-19T04:56:01;6.10;99.90
5711;DHT22;61291;52.524;13.422;2023-11-19T04:58:29;6.10;99.90
5711;DHT22;61291;52.524;13.422;2023-11-19T05:00:54;6.10;99.90
5711;DHT22;61291;52.524;13.422;2023-11-19T05:03:20;6.10;99.90
5711;DHT22;61291;52.524;13.422;2023-11-19T05:05:45;6.10;99.90
5711;DHT22;61291;52.524;13.422;2023-11-19T05:08:11;6.00;99.90
5711;DHT22;61291;52.524;13.422;2023-11-19T05:10:36;6.00;99.90
5711;DHT22;61291;52.524;13.422;2023-11-19T05:13:02;6.00;99.90
5711;DHT22;61291;52.524;13.422;2023-11-19T05:15:27;6.00;99.90
5711;DHT22;61291;52.524;13.422;2023-11-19T05:17:53;6.00;99.90
5711;DHT22;61291;52.524;13.422;2023-11-19T05:20:18;6.00;99.90
5711;DHT22;61291;52.524;13.422;2023-11-19T05:22:44;6.00;99.90
5711;DHT22;61291;52.524;13.422;2023-11-19T05:25:11;6.00;99.90
5711;DHT22;61291;52.524;13.422;2023-11-19T05:27:37;6.00;99.90
5711;DHT22;61291;52.524;13.422;2023-11-19T05:30:04;6.00;99.90
5711;DHT22;61291;52.524;13.422;2023-11-19T05:32:32;6.00;99.90
5711;DHT22;61291;52.524;13.422;2023-11-19T05:34:58;5.90;99.90
5711;DHT22;61291;52.524;13.422;2023-11-19T05:37:24;6.00;99.90
5711;DHT22;61291;52.524;13.422;2023-11-19T05:39:50;6.00;99.90
5711;DHT22;61291;52.524;13.422;2023-11-19T05:42:16;6.00;99.90
5711;DHT22;61291;52.524;13.422;2023-11-19T05:44:41;6.00;99.90
5711;DHT22;61291;52.524;13.422;2023-11-19T05:47:07;6.00;99.90
5711;DHT22;61291;52.524;13.422;2023-11-19T05:49:32;6.00;99.90
5711;DHT22;61291;52.524;13.422;2023-11-19T05:51:59;6.00;99.90
5711;DHT22;61291;52.524;13.422;2023-11-19T05:54:24;6.00;99.90
5711;DHT22;61291;52.524;13.422;2023-11-19T05:56:50;6.10;99.90
5711;DHT22;61291;52.524;13.422;2023-11-19T05:59:19;6.00;99.90
5711;DHT22;61291;52.524;13.422;2023-11-19T06:01:45;6.00;99.90
5711;DHT22;61291;52.524;13.422;2023-11-19T06:04:10;6.00;99.90
5711;DHT22;61291;52.524;13.422;2023-11-19T06:06:36;6.00;99.90
5711;DHT22;61291;52.524;13.422;2023-11-19T06:09:02;6.00;99.90
5711;DHT22;61291;52.524;13.422;2023-11-19T06:11:28;6.00;99.90
5711;DHT22;61291;52.524;13.422;2023-11-19T06:13:54;6.10;99.90
5711;DHT22;61291;52.524;13.422;2023-11-19T06:16:19;6.10;99.90
5711;DHT22;61291;52.524;13.422;2023-11-19T06:18:45;6.10;99.90
5711;DHT22;61291;52.524;13.422;2023-11-19T06:21:11;6.10;99.90
5711;DHT22;61291;52.524;13.422;2023-11-19T06:23:37;6.20;99.90
5711;DHT22;61291;52.524;13.422;2023-11-19T06:26:02;6.10;99.90
5711;DHT22;61291;52.524;13.422;2023-11-19T06:28:28;6.10;99.90
5711;DHT22;61291;52.524;13.422;2023-11-19T06:30:54;6.20;99.90
5711;DHT22;61291;52.524;13.422;2023-11-19T06:33:19;6.20;99.90
5711;DHT22;61291;52.524;13.422;2023-11-19T06:35:45;6.20;99.90
5711;DHT22;61291;52.524;13.422;2023-11-19T06:38:10;6.20;99.90
5711;DHT22;61291;52.524;13.422;2023-11-19T06:40:36;6.30;99.90
5711;DHT22;61291;52.524;13.422;2023-11-19T06:43:02;6.20;99.90
5711;DHT22;61291;52.524;13.422;2023-11-19T06:45:29;6.30;99.90
5711;DHT22;61291;52.524;13.422;2023-11-19T06:47:54;6.30;99.90
5711;DHT22;61291;52.524;13.422;2023-11-19T06:50:20;6.30;99.90
5711;DHT22;61291;52.524;13.422;2023-11-19T06:52:46;6.30;99.90
5711;DHT22;61291;52.524;13.422;2023-11-19T06:55:11;6.30;99.90
5711;DHT22;61291;52.524;13.422;2023-11-19T06:57:37;6.30;99.90
5711;DHT22;61291;52.524;13.422;2023-11-19T07:00:03;6.30;99.90
5711;DHT22;61291;52.524;13.422;2023-11-19T07:02:31;6.40;99.90
5711;DHT22;61291;52.524;13.422;2023-11-19T07:04:56;6.40;99.90
5711;DHT22;61291;52.524;13.422;2023-11-19T07:07:22;6.40;99.90
5711;DHT22;61291;52.524;13.422;2023-11-19T07:09:47;6.50;99.90
5711;DHT22;61291;52.524;13.422;2023-11-19T07:12:13;6.50;99.90
5711;DHT22;61291;52.524;13.422;2023-11-19T07:14:39;6.50;99.90
5711;DHT22;61291;52.524;13.422;2023-11-19T07:17:05;6.50;99.90
5711;DHT22;61291;52.524;13.422;2023-11-19T07:19:31;6.50;99.90
5711;DHT22;61291;52.524;13.422;2023-11-19T07:21:57;6.60;99.90
5711;DHT22;61291;52.524;13.422;2023-11-19T07:24:22;6.60;99.90
5711;DHT22;61291;52.524;13.422;2023-11-19T07:26:48;6.60;99.90
5711;DHT22;61291;52.524;13.422;2023-11-19T07:29:14;6.50;99.90
5711;DHT22;61291;52.524;13.422;2023-11-19T07:31:43;6.60;99.90
5711;DHT22;61291;52.524;13.422;2023-11-19T07:34:11;6.60;99.90
5711;DHT22;61291;52.524;13.422;2023-11-19T07:36:37;6.60;99.90
5711;DHT22;61291;52.524;13.422;2023-11-19T07:39:03;6.60;99.90
5711;DHT22;61291;52.524;13.422;2023-11-19T07:41:30;6.60;99.90
5711;DHT22;61291;52.524;13.422;2023-11-19T07:43:56;6.70;99.90
5711;DHT22;61291;52.524;13.422;2023-11-19T07:46:21;6.70;99.90
5711;DHT22;61291;52.524;13.422;2023-11-19T07:48:47;6.80;99.90
5711;DHT22;61291;52.524;13.422;2023-11-19T07:51:13;6.70;99.90
5711;DHT22;61291;52.524;13.422;2023-11-19T07:53:39;6.80;99.90
5711;DHT22;61291;52.524;13.422;2023-11-19T07:56:06;6.80;99.90
5711;DHT22;61291;52.524;13.422;2023-11-19T07:58:31;6.80;99.90
5711;DHT22;61291;52.524;13.422;2023-11-19T08:00:57;6.90;99.90
5711;DHT22;61291;52.524;13.422;2023-11-19T08:03:23;7.00;99.90
5711;DHT22;61291;52.524;13.422;2023-11-19T08:05:49;7.00;99.90
5711;DHT22;61291;52.524;13.422;2023-11-19T08:08:14;7.00;99.90
5711;DHT22;61291;52.524;13.422;2023-11-19T08:10:40;7.00;99.90
5711;DHT22;61291;52.524;13.422;2023-11-19T08:13:06;7.10;99.90
5711;DHT22;61291;52.524;13.422;2023-11-19T08:15:32;7.00;99.90
5711;DHT22;61291;52.524;13.422;2023-11-19T08:17:57;7.10;99.90
5711;DHT22;61291;52.524;13.422;2023-11-19T08:20:22;7.20;99.90
5711;DHT22;61291;52.524;13.422;2023-11-19T08:22:48;7.30;99.90
5711;DHT22;61291;52.524;13.422;2023-11-19T08:25:14;7.40;99.90
5711;DHT22;61291;52.524;13.422;2023-11-19T08:27:40;7.50;99.90
5711;DHT22;61291;52.524;13.422;2023-11-19T08:30:06;7.60;99.90
5711;DHT22;61291;52.524;13.422;2023-11-19T08:32:31;7.70;99.90
5711;DHT22;61291;52.524;13.422;2023-11-19T08:34:57;7.80;99.90
5711;DHT22;61291;52.524;13.422;2023-11-19T08:37:22;7.80;99.90
5711;DHT22;61291;52.524;13.422;2023-11-19T08:39:49;7.80;99.90
5711;DHT22;61291;52.524;13.422;2023-11-19T08:42:14;7.90;99.90
5711;DHT22;61291;52.524;13.422;2023-11-19T08:44:41;8.00;99.90
5711;DHT22;61291;52.524;13.422;2023-11-19T08:47:09;8.10;99.90
5711;DHT22;61291;52.524;13.422;2023-11-19T08:49:34;8.10;99.90
5711;DHT22;61291;52.524;13.422;2023-11-19T08:52:00;8.20;99.90
5711;DHT22;61291;52.524;13.422;2023-11-19T08:54:26;8.50;99.90
5711;DHT22;61291;52.524;13.422;2023-11-19T08:56:52;8.60;99.90
5711;DHT22;61291;52.524;13.422;2023-11-19T08:59:17;8.60;99.90
5711;DHT22;61291;52.524;13.422;2023-11-19T09:01:44;8.60;99.90
5711;DHT22;61291;52.524;13.422;2023-11-19T09:04:09;8.80;99.90
5711;DHT22;61291;52.524;13.422;2023-11-19T09:06:36;9.00;99.90
5711;DHT22;61291;52.524;13.422;2023-11-19T09:09:01;9.10;99.90
5711;DHT22;61291;52.524;13.422;2023-11-19T09:11:28;9.00;99.90
5711;DHT22;61291;52.524;13.422;2023-11-19T09:13:54;9.00;99.90
5711;DHT22;61291;52.524;13.422;2023-11-19T09:16:20;9.10;99.90
5711;DHT22;61291;52.524;13.422;2023-11-19T09:18:45;9.10;99.90
5711;DHT22;61291;52.524;13.422;2023-11-19T09:21:11;9.20;99.90
5711;DHT22;61291;52.524;13.422;2023-11-19T09:23:37;9.60;99.90
5711;DHT22;61291;52.524;13.422;2023-11-19T09:26:11;9.70;99.90
5711;DHT22;61291;52.524;13.422;2023-11-19T09:28:36;9.50;99.90
5711;DHT22;61291;52.524;13.422;2023-11-19T09:31:02;9.60;99.90
5711;DHT22;61291;52.524;13.422;2023-11-19T09:33:30;9.60;99.90
5711;DHT22;61291;52.524;13.422;2023-11-19T09:35:56;9.70;99.90
5711;DHT22;61291;52.524;13.422;2023-11-19T09:38:21;10.00;99.90
5711;DHT22;61291;52.524;13.422;2023-11-19T09:40:47;10.20;99.90
5711;DHT22;61291;52.524;13.422;2023-11-19T09:43:14;10.60;99.90
5711;DHT22;61291;52.524;13.422;2023-11-19T09:45:50;10.70;99.90
5711;DHT22;61291;52.524;13.422;2023-11-19T09:48:19;10.80;99.90
5711;DHT22;61291;52.524;13.422;2023-11-19T09:50:48;11.00;99.90
5711;DHT22;61291;52.524;13.422;2023-11-19T09:53:15;11.10;99.90
5711;DHT22;61291;52.524;13.422;2023-11-19T09:55:45;11.40;99.90
5711;DHT22;61291;52.524;13.422;2023-11-19T09:58:12;11.70;99.90
5711;DHT22;61291;52.524;13.422;2023-11-19T10:00:39;11.80;99.90
5711;DHT22;61291;52.524;13.422;2023-11-19T10:03:07;11.80;99.90
5711;DHT22;61291;52.524;13.422;2023-11-19T10:05:32;11.90;99.90
5711;DHT22;61291;52.524;13.422;2023-11-19T10:07:58;11.90;99.90
5711;DHT22;61291;52.524;13.422;2023-11-19T10:10:24;11.90;99.90
5711;DHT22;61291;52.524;13.422;2023-11-19T10:12:52;11.80;99.90
5711;DHT22;61291;52.524;13.422;2023-11-19T10:15:21;12.00;99.90
5711;DHT22;61291;52.524;13.422;2023-11-19T10:17:50;12.10;99.90
5711;DHT22;61291;52.524;13.422;2023-11-19T10:20:16;12.00;99.90
5711;DHT22;61291;52.524;13.422;2023-11-19T10:22:42;11.90;99.90
5711;DHT22;61291;52.524;13.422;2023-11-19T10:25:24;11.90;99.90
5711;DHT22;61291;52.524;13.422;2023-11-19T10:27:51;11.90;99.90
5711;DHT22;61291;52.524;13.422;2023-11-19T10:30:24;11.80;99.90
5711;DHT22;61291;52.524;13.422;2023-11-19T10:33:11;11.90;99.90
5711;DHT22;61291;52.524;13.422;2023-11-19T10:35:58;11.90;99.90
5711;DHT22;61291;52.524;13.422;2023-11-19T10:38:25;12.10;99.90
5711;DHT22;61291;52.524;13.422;2023-11-19T10:40:51;12.20;99.90
5711;DHT22;61291;52.524;13.422;2023-11-19T10:43:18;12.30;99.90
5711;DHT22;61291;52.524;13.422;2023-11-19T10:45:43;12.50;99.90
5711;DHT22;61291;52.524;13.422;2023-11-19T10:48:09;12.80;99.90
5711;DHT22;61291;52.524;13.422;2023-11-19T10:50:42;13.10;99.90
5711;DHT22;61291;52.524;13.422;2023-11-19T10:53:10;13.30;99.90
5711;DHT22;61291;52.524;13.422;2023-11-19T10:55:38;13.40;99.90
5711;DHT22;61291;52.524;13.422;2023-11-19T10:58:15;13.50;99.90
5711;DHT22;61291;52.524;13.422;2023-11-19T11:00:48;13.50;99.90
5711;DHT22;61291;52.524;13.422;2023-11-19T11:03:17;13.70;99.90
5711;DHT22;61291;52.524;13.422;2023-11-19T11:05:43;13.80;99.90
5711;DHT22;61291;52.524;13.422;2023-11-19T11:08:09;14.00;99.90
5711;DHT22;61291;52.524;13.422;2023-11-19T11:10:40;13.70;99.90
5711;DHT22;61291;52.524;13.422;2023-11-19T11:13:08;13.40;99.90
5711;DHT22;61291;52.524;13.422;2023-11-19T11:15:35;13.20;99.90
5711;DHT22;61291;52.524;13.422;2023-11-19T11:18:02;13.10;99.90
5711;DHT22;61291;52.524;13.422;2023-11-19T11:20:32;13.10;99.90
5711;DHT22;61291;52.524;13.422;2023-11-19T11:28:30;13.30;99.90
5711;DHT22;61291;52.524;13.422;2023-11-19T11:31:08;13.20;99.90
5711;DHT22;61291;52.524;13.422;2023-11-19T11:33:48;13.00;99.90
5711;DHT22;61291;52.524;13.422;2023-11-19T11:36:22;12.90;99.90
5711;DHT22;61291;52.524;13.422;2023-11-19T11:38:49;13.00;99.90
5711;DHT22;61291;52.524;13.422;2023-11-19T11:41:18;13.20;99.90
5711;DHT22;61291;52.524;13.422;2023-11-19T11:43:52;13.50;99.90
5711;DHT22;61291;52.524;13.422;2023-11-19T11:49:08;13.90;99.90
5711;DHT22;61291;52.524;13.422;2023-11-19T11:54:31;14.70;99.90
5711;DHT22;61291;52.524;13.422;2023-11-19T11:57:04;15.00;99.90
5711;DHT22;61291;52.524;13.422;2023-11-19T12:02:09;15.40;99.90
5711;DHT22;61291;52.524;13.422;2023-11-19T12:04:35;15.30;99.90
5711;DHT22;61291;52.524;13.422;2023-11-19T12:07:10;15.20;99.90
5711;DHT22;61291;52.524;13.422;2023-11-19T12:09:42;15.00;99.90
5711;DHT22;61291;52.524;13.422;2023-11-19T12:12:23;14.90;99.90
5711;DHT22;61291;52.524;13.422;2023-11-19T12:20:19;14.50;99.90
5711;DHT22;61291;52.524;13.422;2023-11-19T12:22:46;14.50;99.90
5711;DHT22;61291;52.524;13.422;2023-11-19T12:25:13;14.60;99.90
5711;DHT22;61291;52.524;13.422;2023-11-19T12:27:43;14.60;99.90
5711;DHT22;61291;52.524;13.422;2023-11-19T12:30:09;14.60;99.90
5711;DHT22;61291;52.524;13.422;2023-11-19T12:32:41;14.50;99.90
5711;DHT22;61291;52.524;13.422;2023-11-19T12:35:08;14.40;99.90
5711;DHT22;61291;52.524;13.422;2023-11-19T12:37:42;14.30;99.90
5711;DHT22;61291;52.524;13.422;2023-11-19T12:40:17;14.20;99.90
5711;DHT22;61291;52.524;13.422;2023-11-19T12:42:47;14.20;99.90
5711;DHT22;61291;52.524;13.422;2023-11-19T12:45:14;14.00;99.90
5711;DHT22;61291;52.524;13.422;2023-11-19T12:47:40;14.00;99.90
5711;DHT22;61291;52.524;13.422;2023-11-19T12:50:07;13.60;99.90
5711;DHT22;61291;52.524;13.422;2023-11-19T12:52:37;13.50;99.90
5711;DHT22;61291;52.524;13.422;2023-11-19T12:55:26;13.50;99.90
5711;DHT22;61291;52.524;13.422;2023-11-19T12:57:52;13.50;99.90
5711;DHT22;61291;52.524;13.422;2023-11-19T13:00:21;13.70;99.90
5711;DHT22;61291;52.524;13.422;2023-11-19T13:02:48;13.80;99.90
5711;DHT22;61291;52.524;13.422;2023-11-19T13:05:34;13.60;99.90
5711;DHT22;61291;52.524;13.422;2023-11-19T13:08:00;13.30;99.90
5711;DHT22;61291;52.524;13.422;2023-11-19T13:10:27;12.90;99.90
5711;DHT22;61291;52.524;13.422;2023-11-19T13:13:02;12.80;99.90
5711;DHT22;61291;52.524;13.422;2023-11-19T13:15:28;12.70;99.90
5711;DHT22;61291;52.524;13.422;2023-11-19T13:17:54;12.70;99.90
5711;DHT22;61291;52.524;13.422;2023-11-19T13:20:20;12.80;99.90
5711;DHT22;61291;52.524;13.422;2023-11-19T13:23:04;12.90;99.90
5711;DHT22;61291;52.524;13.422;2023-11-19T13:25:31;13.00;99.90
5711;DHT22;61291;52.524;13.422;2023-11-19T13:27:57;13.10;99.90
5711;DHT22;61291;52.524;13.422;2023-11-19T13:30:24;13.20;99.90
5711;DHT22;61291;52.524;13.422;2023-11-19T13:32:51;13.00;99.90
5711;DHT22;61291;52.524;13.422;2023-11-19T13:35:17;12.80;99.90
5711;DHT22;61291;52.524;13.422;2023-11-19T13:37:46;12.60;99.90
5711;DHT22;61291;52.524;13.422;2023-11-19T13:40:12;12.60;99.90
5711;DHT22;61291;52.524;13.422;2023-11-19T13:42:45;12.70;99.90
5711;DHT22;61291;52.524;13.422;2023-11-19T13:45:11;12.70;99.90
5711;DHT22;61291;52.524;13.422;2023-11-19T13:47:42;12.90;99.90
5711;DHT22;61291;52.524;13.422;2023-11-19T13:50:15;13.10;99.90
5711;DHT22;61291;52.524;13.422;2023-11-19T13:52:43;13.20;99.90
5711;DHT22;61291;52.524;13.422;2023-11-19T13:55:10;13.20;99.90
5711;DHT22;61291;52.524;13.422;2023-11-19T13:57:37;13.30;99.90
5711;DHT22;61291;52.524;13.422;2023-11-19T14:00:04;13.30;99.90
5711;DHT22;61291;52.524;13.422;2023-11-19T14:02:36;13.20;99.90
5711;DHT22;61291;52.524;13.422;2023-11-19T14:05:01;13.20;99.90
5711;DHT22;61291;52.524;13.422;2023-11-19T14:07:27;13.10;99.90
5711;DHT22;61291;52.524;13.422;2023-11-19T14:09:53;13.00;99.90
5711;DHT22;61291;52.524;13.422;2023-11-19T14:12:19;13.10;99.90
5711;DHT22;61291;52.524;13.422;2023-11-19T14:14:45;13.10;99.90
5711;DHT22;61291;52.524;13.422;2023-11-19T14:17:10;13.10;99.90
5711;DHT22;61291;52.524;13.422;2023-11-19T14:19:36;13.10;99.90
5711;DHT22;61291;52.524;13.422;2023-11-19T14:22:03;13.10;99.90
5711;DHT22;61291;52.524;13.422;2023-11-19T14:24:29;13.10;99.90
5711;DHT22;61291;52.524;13.422;2023-11-19T14:26:54;13.00;99.90
5711;DHT22;61291;52.524;13.422;2023-11-19T14:29:23;13.00;99.90
5711;DHT22;61291;52.524;13.422;2023-11-19T14:31:48;12.90;99.90
5711;DHT22;61291;52.524;13.422;2023-11-19T14:34:14;12.90;99.90
5711;DHT22;61291;52.524;13.422;2023-11-19T14:36:39;12.80;99.90
5711;DHT22;61291;52.524;13.422;2023-11-19T14:39:05;12.70;99.90
5711;DHT22;61291;52.524;13.422;2023-11-19T14:41:32;12.70;99.90
5711;DHT22;61291;52.524;13.422;2023-11-19T14:43:57;12.60;99.90
5711;DHT22;61291;52.524;13.422;2023-11-19T14:46:23;12.60;99.90
5711;DHT22;61291;52.524;13.422;2023-11-19T14:48:48;12.50;99.90
5711;DHT22;61291;52.524;13.422;2023-11-19T14:51:14;12.40;99.90
5711;DHT22;61291;52.524;13.422;2023-11-19T14:53:39;12.30;99.90
5711;DHT22;61291;52.524;13.422;2023-11-19T14:56:05;12.30;99.90
5711;DHT22;61291;52.524;13.422;2023-11-19T14:58:35;12.30;99.90
5711;DHT22;61291;52.524;13.422;2023-11-19T15:01:00;12.40;99.90
5711;DHT22;61291;52.524;13.422;2023-11-19T15:03:28;12.40;99.90
5711;DHT22;61291;52.524;13.422;2023-11-19T15:05:54;12.40;99.90
5711;DHT22;61291;52.524;13.422;2023-11-19T15:08:19;12.40;99.90
5711;DHT22;61291;52.524;13.422;2023-11-19T15:10:44;12.40;99.90
5711;DHT22;61291;52.524;13.422;2023-11-19T15:13:10;12.40;99.90
5711;DHT22;61291;52.524;13.422;2023-11-19T15:15:36;12.40;99.90
5711;DHT22;61291;52.524;13.422;2023-11-19T15:18:01;12.40;99.90
5711;DHT22;61291;52.524;13.422;2023-11-19T15:20:27;12.40;99.90
5711;DHT22;61291;52.524;13.422;2023-11-19T15:22:55;12.30;99.90
5711;DHT22;61291;52.524;13.422;2023-11-19T15:25:21;12.30;99.90
5711;DHT22;61291;52.524;13.422;2023-11-19T15:27:48;12.20;99.90
5711;DHT22;61291;52.524;13.422;2023-11-19T15:30:13;12.10;99.90
5711;DHT22;61291;52.524;13.422;2023-11-19T15:32:39;12.10;99.90
5711;DHT22;61291;52.524;13.422;2023-11-19T15:35:05;12.00;99.90
5711;DHT22;61291;52.524;13.422;2023-11-19T15:37:32;12.00;99.90
5711;DHT22;61291;52.524;13.422;2023-11-19T15:39:58;12.00;99.90
5711;DHT22;61291;52.524;13.422;2023-11-19T15:42:24;12.00;99.90
5711;DHT22;61291;52.524;13.422;2023-11-19T15:44:50;12.00;99.90
5711;DHT22;61291;52.524;13.422;2023-11-19T15:47:15;12.00;99.90
5711;DHT22;61291;52.524;13.422;2023-11-19T15:49:41;12.00;99.90
5711;DHT22;61291;52.524;13.422;2023-11-19T15:52:06;12.00;99.90
5711;DHT22;61291;52.524;13.422;2023-11-19T15:54:32;11.90;99.90
5711;DHT22;61291;52.524;13.422;2023-11-19T15:56:58;11.80;99.90